sensor_id;sensor_type;location;lat;lon;timestamp;P1;durP1;ratioP1;P2;durP2;ratioP2
46765;SDS011;32527;51.986;5.842;2023-07-09T00:02:14;7.47;;;4.72;;
46765;SDS011;32527;51.986;5.842;2023-07-09T00:04:39;11.25;;;5.43;;
46765;SDS011;32527;51.986;5.842;2023-07-09T00:07:08;6.82;;;4.53;;
46765;SDS011;32527;51.986;5.842;2023-07-09T00:09:46;7.95;;;4.95;;
46765;SDS011;32527;51.986;5.842;2023-07-09T00:12:12;5.63;;;4.55;;
46765;SDS011;32527;51.986;5.842;2023-07-09T00:14:39;7.32;;;4.70;;
46765;SDS011;32527;51.986;5.842;2023-07-09T00:17:16;6.38;;;5.00;;
46765;SDS011;32527;51.986;5.842;2023-07-09T00:19:46;5.78;;;4.38;;
46765;SDS011;32527;51.986;5.842;2023-07-09T00:22:16;6.55;;;4.57;;
46765;SDS011;32527;51.986;5.842;2023-07-09T00:24:43;6.68;;;4.57;;
46765;SDS011;32527;51.986;5.842;2023-07-09T00:27:10;6.45;;;4.65;;
46765;SDS011;32527;51.986;5.842;2023-07-09T00:29:37;6.15;;;4.25;;
46765;SDS011;32527;51.986;5.842;2023-07-09T00:32:03;7.40;;;4.97;;
46765;SDS011;32527;51.986;5.842;2023-07-09T00:34:29;6.22;;;4.68;;
46765;SDS011;32527;51.986;5.842;2023-07-09T00:36:54;9.25;;;5.50;;
46765;SDS011;32527;51.986;5.842;2023-07-09T00:39:21;6.65;;;4.72;;
46765;SDS011;32527;51.986;5.842;2023-07-09T00:41:48;7.47;;;5.03;;
46765;SDS011;32527;51.986;5.842;2023-07-09T00:44:26;5.93;;;4.25;;
46765;SDS011;32527;51.986;5.842;2023-07-09T00:49:34;7.57;;;4.88;;
46765;SDS011;32527;51.986;5.842;2023-07-09T00:52:19;6.85;;;4.13;;
46765;SDS011;32527;51.986;5.842;2023-07-09T00:54:53;6.50;;;4.70;;
46765;SDS011;32527;51.986;5.842;2023-07-09T00:57:21;6.38;;;4.32;;
46765;SDS011;32527;51.986;5.842;2023-07-09T01:00:00;6.88;;;4.72;;
46765;SDS011;32527;51.986;5.842;2023-07-09T01:05:02;7.75;;;4.22;;
46765;SDS011;32527;51.986;5.842;2023-07-09T01:07:29;7.40;;;4.90;;
46765;SDS011;32527;51.986;5.842;2023-07-09T01:09:55;9.57;;;4.03;;
46765;SDS011;32527;51.986;5.842;2023-07-09T01:12:21;6.20;;;4.45;;
46765;SDS011;32527;51.986;5.842;2023-07-09T01:14:48;6.35;;;4.25;;
46765;SDS011;32527;51.986;5.842;2023-07-09T01:17:18;7.97;;;5.03;;
46765;SDS011;32527;51.986;5.842;2023-07-09T01:19:44;6.93;;;4.75;;
46765;SDS011;32527;51.986;5.842;2023-07-09T01:22:16;6.82;;;4.50;;
46765;SDS011;32527;51.986;5.842;2023-07-09T01:27:18;5.72;;;4.03;;
46765;SDS011;32527;51.986;5.842;2023-07-09T01:29:47;5.63;;;3.92;;
46765;SDS011;32527;51.986;5.842;2023-07-09T01:32:17;7.45;;;5.10;;
46765;SDS011;32527;51.986;5.842;2023-07-09T01:34:49;4.88;;;3.67;;
46765;SDS011;32527;51.986;5.842;2023-07-09T01:37:18;5.85;;;4.35;;
46765;SDS011;32527;51.986;5.842;2023-07-09T01:39:47;5.00;;;4.07;;
46765;SDS011;32527;51.986;5.842;2023-07-09T01:42:14;6.03;;;4.65;;
46765;SDS011;32527;51.986;5.842;2023-07-09T01:44:42;8.07;;;4.65;;
46765;SDS011;32527;51.986;5.842;2023-07-09T01:47:10;9.40;;;4.72;;
46765;SDS011;32527;51.986;5.842;2023-07-09T01:49:36;5.93;;;4.90;;
46765;SDS011;32527;51.986;5.842;2023-07-09T01:52:05;7.40;;;4.85;;
46765;SDS011;32527;51.986;5.842;2023-07-09T01:54:33;6.13;;;4.13;;
46765;SDS011;32527;51.986;5.842;2023-07-09T01:57:16;8.18;;;4.60;;
46765;SDS011;32527;51.986;5.842;2023-07-09T01:59:50;5.63;;;4.40;;
46765;SDS011;32527;51.986;5.842;2023-07-09T02:02:18;5.72;;;4.20;;
46765;SDS011;32527;51.986;5.842;2023-07-09T02:04:45;5.43;;;3.63;;
46765;SDS011;32527;51.986;5.842;2023-07-09T02:07:15;6.18;;;4.95;;
46765;SDS011;32527;51.986;5.842;2023-07-09T02:09:41;4.75;;;3.97;;
46765;SDS011;32527;51.986;5.842;2023-07-09T02:12:07;5.72;;;4.15;;
46765;SDS011;32527;51.986;5.842;2023-07-09T02:14:34;8.63;;;4.93;;
46765;SDS011;32527;51.986;5.842;2023-07-09T02:17:01;5.25;;;3.85;;
46765;SDS011;32527;51.986;5.842;2023-07-09T02:19:28;5.53;;;4.38;;
46765;SDS011;32527;51.986;5.842;2023-07-09T02:21:54;4.68;;;3.92;;
46765;SDS011;32527;51.986;5.842;2023-07-09T02:24:20;5.93;;;3.85;;
46765;SDS011;32527;51.986;5.842;2023-07-09T02:26:49;6.03;;;4.28;;
46765;SDS011;32527;51.986;5.842;2023-07-09T02:29:16;7.07;;;4.50;;
46765;SDS011;32527;51.986;5.842;2023-07-09T02:31:42;7.22;;;4.10;;
46765;SDS011;32527;51.986;5.842;2023-07-09T02:34:09;6.03;;;4.10;;
46765;SDS011;32527;51.986;5.842;2023-07-09T02:36:35;7.80;;;4.57;;
46765;SDS011;32527;51.986;5.842;2023-07-09T02:39:01;4.97;;;4.18;;
46765;SDS011;32527;51.986;5.842;2023-07-09T02:41:28;7.38;;;4.50;;
46765;SDS011;32527;51.986;5.842;2023-07-09T02:43:54;5.78;;;4.50;;
46765;SDS011;32527;51.986;5.842;2023-07-09T02:46:20;9.02;;;4.30;;
46765;SDS011;32527;51.986;5.842;2023-07-09T02:48:46;8.32;;;4.40;;
46765;SDS011;32527;51.986;5.842;2023-07-09T02:51:12;5.03;;;3.50;;
46765;SDS011;32527;51.986;5.842;2023-07-09T02:53:38;6.93;;;4.78;;
46765;SDS011;32527;51.986;5.842;2023-07-09T02:56:04;7.68;;;4.30;;
46765;SDS011;32527;51.986;5.842;2023-07-09T02:58:30;7.38;;;4.55;;
46765;SDS011;32527;51.986;5.842;2023-07-09T03:00:56;7.15;;;4.60;;
46765;SDS011;32527;51.986;5.842;2023-07-09T03:03:22;6.35;;;4.38;;
46765;SDS011;32527;51.986;5.842;2023-07-09T03:05:48;7.03;;;4.30;;
46765;SDS011;32527;51.986;5.842;2023-07-09T03:08:14;6.25;;;4.75;;
46765;SDS011;32527;51.986;5.842;2023-07-09T03:10:40;5.28;;;4.00;;
46765;SDS011;32527;51.986;5.842;2023-07-09T03:13:06;6.80;;;4.50;;
46765;SDS011;32527;51.986;5.842;2023-07-09T03:15:32;5.82;;;4.43;;
46765;SDS011;32527;51.986;5.842;2023-07-09T03:17:58;7.03;;;4.45;;
46765;SDS011;32527;51.986;5.842;2023-07-09T03:20:24;6.50;;;4.35;;
46765;SDS011;32527;51.986;5.842;2023-07-09T03:22:50;7.72;;;4.47;;
46765;SDS011;32527;51.986;5.842;2023-07-09T03:25:16;7.57;;;4.70;;
46765;SDS011;32527;51.986;5.842;2023-07-09T03:27:42;10.95;;;5.00;;
46765;SDS011;32527;51.986;5.842;2023-07-09T03:30:09;7.60;;;5.05;;
46765;SDS011;32527;51.986;5.842;2023-07-09T03:32:35;6.95;;;4.30;;
46765;SDS011;32527;51.986;5.842;2023-07-09T03:35:00;11.27;;;4.97;;
46765;SDS011;32527;51.986;5.842;2023-07-09T03:37:26;6.88;;;4.43;;
46765;SDS011;32527;51.986;5.842;2023-07-09T03:39:52;7.13;;;4.90;;
46765;SDS011;32527;51.986;5.842;2023-07-09T03:42:18;7.07;;;4.90;;
46765;SDS011;32527;51.986;5.842;2023-07-09T03:44:44;6.60;;;4.53;;
46765;SDS011;32527;51.986;5.842;2023-07-09T03:47:10;7.07;;;4.88;;
46765;SDS011;32527;51.986;5.842;2023-07-09T03:49:35;8.00;;;4.20;;
46765;SDS011;32527;51.986;5.842;2023-07-09T03:52:02;8.10;;;4.60;;
46765;SDS011;32527;51.986;5.842;2023-07-09T03:54:28;6.70;;;5.15;;
46765;SDS011;32527;51.986;5.842;2023-07-09T03:56:54;7.32;;;4.78;;
46765;SDS011;32527;51.986;5.842;2023-07-09T03:59:20;11.55;;;5.40;;
46765;SDS011;32527;51.986;5.842;2023-07-09T04:01:45;7.35;;;4.80;;
46765;SDS011;32527;51.986;5.842;2023-07-09T04:04:12;7.65;;;5.03;;
46765;SDS011;32527;51.986;5.842;2023-07-09T04:06:38;8.05;;;5.57;;
46765;SDS011;32527;51.986;5.842;2023-07-09T04:09:04;7.30;;;4.88;;
46765;SDS011;32527;51.986;5.842;2023-07-09T04:11:30;7.25;;;4.75;;
46765;SDS011;32527;51.986;5.842;2023-07-09T04:13:56;7.15;;;4.90;;
46765;SDS011;32527;51.986;5.842;2023-07-09T04:16:22;7.75;;;4.78;;
46765;SDS011;32527;51.986;5.842;2023-07-09T04:18:48;8.60;;;5.30;;
46765;SDS011;32527;51.986;5.842;2023-07-09T04:21:14;6.28;;;5.10;;
46765;SDS011;32527;51.986;5.842;2023-07-09T04:23:40;6.55;;;4.38;;
46765;SDS011;32527;51.986;5.842;2023-07-09T04:26:07;6.95;;;5.03;;
46765;SDS011;32527;51.986;5.842;2023-07-09T04:28:37;9.93;;;4.93;;
46765;SDS011;32527;51.986;5.842;2023-07-09T04:31:02;7.63;;;5.28;;
46765;SDS011;32527;51.986;5.842;2023-07-09T04:33:29;7.28;;;5.05;;
46765;SDS011;32527;51.986;5.842;2023-07-09T04:35:55;8.23;;;5.90;;
46765;SDS011;32527;51.986;5.842;2023-07-09T04:38:21;6.93;;;5.18;;
46765;SDS011;32527;51.986;5.842;2023-07-09T04:40:47;8.75;;;5.40;;
46765;SDS011;32527;51.986;5.842;2023-07-09T04:43:13;5.85;;;4.63;;
46765;SDS011;32527;51.986;5.842;2023-07-09T04:45:39;7.25;;;5.07;;
46765;SDS011;32527;51.986;5.842;2023-07-09T04:48:05;7.10;;;5.13;;
46765;SDS011;32527;51.986;5.842;2023-07-09T04:50:32;7.30;;;5.20;;
46765;SDS011;32527;51.986;5.842;2023-07-09T04:52:58;7.75;;;5.47;;
46765;SDS011;32527;51.986;5.842;2023-07-09T04:55:24;8.35;;;6.10;;
46765;SDS011;32527;51.986;5.842;2023-07-09T04:57:51;8.90;;;5.30;;
46765;SDS011;32527;51.986;5.842;2023-07-09T05:00:17;6.53;;;4.80;;
46765;SDS011;32527;51.986;5.842;2023-07-09T05:02:43;6.60;;;4.68;;
46765;SDS011;32527;51.986;5.842;2023-07-09T05:05:10;7.38;;;5.25;;
46765;SDS011;32527;51.986;5.842;2023-07-09T05:07:37;6.95;;;4.60;;
46765;SDS011;32527;51.986;5.842;2023-07-09T05:10:03;7.55;;;5.57;;
46765;SDS011;32527;51.986;5.842;2023-07-09T05:12:29;6.93;;;5.47;;
46765;SDS011;32527;51.986;5.842;2023-07-09T05:14:56;8.43;;;5.10;;
46765;SDS011;32527;51.986;5.842;2023-07-09T05:17:22;7.07;;;4.90;;
46765;SDS011;32527;51.986;5.842;2023-07-09T05:19:49;9.55;;;5.10;;
46765;SDS011;32527;51.986;5.842;2023-07-09T05:22:15;9.05;;;5.75;;
46765;SDS011;32527;51.986;5.842;2023-07-09T05:24:41;9.05;;;5.40;;
46765;SDS011;32527;51.986;5.842;2023-07-09T05:27:07;7.32;;;5.25;;
46765;SDS011;32527;51.986;5.842;2023-07-09T05:29:33;13.93;;;7.18;;
46765;SDS011;32527;51.986;5.842;2023-07-09T05:31:59;7.95;;;5.57;;
46765;SDS011;32527;51.986;5.842;2023-07-09T05:34:25;7.88;;;5.43;;
46765;SDS011;32527;51.986;5.842;2023-07-09T05:36:51;9.70;;;5.72;;
46765;SDS011;32527;51.986;5.842;2023-07-09T05:39:17;9.50;;;5.30;;
46765;SDS011;32527;51.986;5.842;2023-07-09T05:41:43;8.77;;;7.18;;
46765;SDS011;32527;51.986;5.842;2023-07-09T05:44:09;11.32;;;6.18;;
46765;SDS011;32527;51.986;5.842;2023-07-09T05:46:35;8.77;;;6.40;;
46765;SDS011;32527;51.986;5.842;2023-07-09T05:49:02;8.27;;;6.35;;
46765;SDS011;32527;51.986;5.842;2023-07-09T05:51:29;9.95;;;6.05;;
46765;SDS011;32527;51.986;5.842;2023-07-09T05:53:55;9.88;;;5.70;;
46765;SDS011;32527;51.986;5.842;2023-07-09T05:56:21;10.15;;;5.88;;
46765;SDS011;32527;51.986;5.842;2023-07-09T05:58:47;8.35;;;6.00;;
46765;SDS011;32527;51.986;5.842;2023-07-09T06:01:13;7.22;;;5.72;;
46765;SDS011;32527;51.986;5.842;2023-07-09T06:03:39;7.38;;;6.10;;
46765;SDS011;32527;51.986;5.842;2023-07-09T06:06:05;9.15;;;7.10;;
46765;SDS011;32527;51.986;5.842;2023-07-09T06:08:31;9.68;;;7.22;;
46765;SDS011;32527;51.986;5.842;2023-07-09T06:10:58;9.88;;;7.22;;
46765;SDS011;32527;51.986;5.842;2023-07-09T06:13:26;8.13;;;6.47;;
46765;SDS011;32527;51.986;5.842;2023-07-09T06:15:53;10.68;;;7.60;;
46765;SDS011;32527;51.986;5.842;2023-07-09T06:18:20;8.63;;;6.50;;
46765;SDS011;32527;51.986;5.842;2023-07-09T06:20:51;7.25;;;6.25;;
46765;SDS011;32527;51.986;5.842;2023-07-09T06:23:19;14.13;;;7.10;;
46765;SDS011;32527;51.986;5.842;2023-07-09T06:25:45;9.25;;;6.13;;
46765;SDS011;32527;51.986;5.842;2023-07-09T06:28:16;10.02;;;7.60;;
46765;SDS011;32527;51.986;5.842;2023-07-09T06:30:44;8.35;;;7.18;;
46765;SDS011;32527;51.986;5.842;2023-07-09T06:33:11;9.27;;;7.30;;
46765;SDS011;32527;51.986;5.842;2023-07-09T06:35:38;9.85;;;7.03;;
46765;SDS011;32527;51.986;5.842;2023-07-09T06:38:05;8.82;;;7.75;;
46765;SDS011;32527;51.986;5.842;2023-07-09T06:40:31;7.75;;;6.95;;
46765;SDS011;32527;51.986;5.842;2023-07-09T06:42:57;8.60;;;6.78;;
46765;SDS011;32527;51.986;5.842;2023-07-09T06:45:30;7.93;;;6.97;;
46765;SDS011;32527;51.986;5.842;2023-07-09T06:47:57;11.73;;;7.80;;
46765;SDS011;32527;51.986;5.842;2023-07-09T06:50:23;9.85;;;6.75;;
46765;SDS011;32527;51.986;5.842;2023-07-09T06:52:49;7.50;;;6.80;;
46765;SDS011;32527;51.986;5.842;2023-07-09T06:55:15;10.23;;;7.47;;
46765;SDS011;32527;51.986;5.842;2023-07-09T06:57:41;8.27;;;7.30;;
46765;SDS011;32527;51.986;5.842;2023-07-09T07:00:07;7.90;;;7.10;;
46765;SDS011;32527;51.986;5.842;2023-07-09T07:02:33;8.35;;;7.55;;
46765;SDS011;32527;51.986;5.842;2023-07-09T07:05:00;11.02;;;7.22;;
46765;SDS011;32527;51.986;5.842;2023-07-09T07:07:26;8.60;;;7.45;;
46765;SDS011;32527;51.986;5.842;2023-07-09T07:09:52;8.02;;;7.22;;
46765;SDS011;32527;51.986;5.842;2023-07-09T07:12:25;9.02;;;8.07;;
46765;SDS011;32527;51.986;5.842;2023-07-09T07:14:52;9.00;;;7.88;;
46765;SDS011;32527;51.986;5.842;2023-07-09T07:17:19;8.38;;;7.55;;
46765;SDS011;32527;51.986;5.842;2023-07-09T07:19:45;8.05;;;6.82;;
46765;SDS011;32527;51.986;5.842;2023-07-09T07:22:11;7.90;;;7.15;;
46765;SDS011;32527;51.986;5.842;2023-07-09T07:24:37;8.27;;;7.40;;
46765;SDS011;32527;51.986;5.842;2023-07-09T07:27:03;8.20;;;7.40;;
46765;SDS011;32527;51.986;5.842;2023-07-09T07:29:29;8.18;;;6.70;;
46765;SDS011;32527;51.986;5.842;2023-07-09T07:31:55;8.40;;;7.43;;
46765;SDS011;32527;51.986;5.842;2023-07-09T07:34:21;10.30;;;7.90;;
46765;SDS011;32527;51.986;5.842;2023-07-09T07:36:49;8.18;;;7.40;;
46765;SDS011;32527;51.986;5.842;2023-07-09T07:39:15;15.32;;;8.20;;
46765;SDS011;32527;51.986;5.842;2023-07-09T07:41:41;9.50;;;7.97;;
46765;SDS011;32527;51.986;5.842;2023-07-09T07:44:07;7.90;;;7.15;;
46765;SDS011;32527;51.986;5.842;2023-07-09T07:46:33;8.38;;;7.45;;
46765;SDS011;32527;51.986;5.842;2023-07-09T07:48:59;10.52;;;7.63;;
46765;SDS011;32527;51.986;5.842;2023-07-09T07:51:25;9.07;;;8.18;;
46765;SDS011;32527;51.986;5.842;2023-07-09T07:53:53;11.85;;;7.68;;
46765;SDS011;32527;51.986;5.842;2023-07-09T07:56:19;8.57;;;7.70;;
46765;SDS011;32527;51.986;5.842;2023-07-09T07:58:45;9.38;;;7.13;;
46765;SDS011;32527;51.986;5.842;2023-07-09T08:01:11;7.72;;;7.03;;
46765;SDS011;32527;51.986;5.842;2023-07-09T08:03:37;8.20;;;7.22;;
46765;SDS011;32527;51.986;5.842;2023-07-09T08:06:03;8.27;;;7.45;;
46765;SDS011;32527;51.986;5.842;2023-07-09T08:08:29;7.32;;;6.65;;
46765;SDS011;32527;51.986;5.842;2023-07-09T08:11:02;7.97;;;7.18;;
46765;SDS011;32527;51.986;5.842;2023-07-09T08:13:30;7.40;;;6.70;;
46765;SDS011;32527;51.986;5.842;2023-07-09T08:15:57;8.20;;;7.40;;
46765;SDS011;32527;51.986;5.842;2023-07-09T08:18:23;8.70;;;7.70;;
46765;SDS011;32527;51.986;5.842;2023-07-09T08:20:49;7.65;;;6.95;;
46765;SDS011;32527;51.986;5.842;2023-07-09T08:23:15;8.25;;;7.38;;
46765;SDS011;32527;51.986;5.842;2023-07-09T08:25:41;7.80;;;6.97;;
46765;SDS011;32527;51.986;5.842;2023-07-09T08:28:07;8.55;;;7.30;;
46765;SDS011;32527;51.986;5.842;2023-07-09T08:30:33;8.80;;;7.38;;
46765;SDS011;32527;51.986;5.842;2023-07-09T08:33:00;10.13;;;8.40;;
46765;SDS011;32527;51.986;5.842;2023-07-09T08:35:26;8.77;;;7.88;;
46765;SDS011;32527;51.986;5.842;2023-07-09T08:37:52;7.97;;;7.28;;
46765;SDS011;32527;51.986;5.842;2023-07-09T08:40:18;7.78;;;7.05;;
46765;SDS011;32527;51.986;5.842;2023-07-09T08:42:45;10.70;;;7.18;;
46765;SDS011;32527;51.986;5.842;2023-07-09T08:45:38;8.57;;;7.68;;
46765;SDS011;32527;51.986;5.842;2023-07-09T08:48:33;8.25;;;7.07;;
46765;SDS011;32527;51.986;5.842;2023-07-09T08:53:39;8.00;;;7.30;;
46765;SDS011;32527;51.986;5.842;2023-07-09T08:56:13;8.70;;;7.78;;
46765;SDS011;32527;51.986;5.842;2023-07-09T08:58:40;7.65;;;6.95;;
46765;SDS011;32527;51.986;5.842;2023-07-09T09:01:17;7.40;;;6.80;;
46765;SDS011;32527;51.986;5.842;2023-07-09T09:03:48;7.53;;;6.82;;
46765;SDS011;32527;51.986;5.842;2023-07-09T09:06:28;7.78;;;7.05;;
46765;SDS011;32527;51.986;5.842;2023-07-09T09:09:03;7.88;;;7.15;;
46765;SDS011;32527;51.986;5.842;2023-07-09T09:17:17;8.02;;;7.22;;
46765;SDS011;32527;51.986;5.842;2023-07-09T09:19:52;9.40;;;7.30;;
46765;SDS011;32527;51.986;5.842;2023-07-09T09:22:24;7.13;;;6.43;;
46765;SDS011;32527;51.986;5.842;2023-07-09T09:27:23;7.55;;;6.85;;
46765;SDS011;32527;51.986;5.842;2023-07-09T09:29:49;7.57;;;6.88;;
46765;SDS011;32527;51.986;5.842;2023-07-09T09:32:18;7.53;;;6.82;;
46765;SDS011;32527;51.986;5.842;2023-07-09T09:34:45;7.43;;;6.70;;
46765;SDS011;32527;51.986;5.842;2023-07-09T09:37:11;8.18;;;6.90;;
46765;SDS011;32527;51.986;5.842;2023-07-09T09:39:38;8.98;;;7.03;;
46765;SDS011;32527;51.986;5.842;2023-07-09T09:42:07;7.15;;;6.40;;
46765;SDS011;32527;51.986;5.842;2023-07-09T09:44:36;7.35;;;6.65;;
46765;SDS011;32527;51.986;5.842;2023-07-09T09:47:02;7.93;;;7.00;;
46765;SDS011;32527;51.986;5.842;2023-07-09T09:49:28;6.72;;;6.13;;
46765;SDS011;32527;51.986;5.842;2023-07-09T09:51:55;7.50;;;6.20;;
46765;SDS011;32527;51.986;5.842;2023-07-09T09:54:24;7.65;;;6.90;;
46765;SDS011;32527;51.986;5.842;2023-07-09T09:56:52;7.13;;;6.43;;
46765;SDS011;32527;51.986;5.842;2023-07-09T09:59:20;6.88;;;6.28;;
46765;SDS011;32527;51.986;5.842;2023-07-09T10:01:56;6.80;;;6.10;;
46765;SDS011;32527;51.986;5.842;2023-07-09T10:04:23;7.38;;;6.45;;
46765;SDS011;32527;51.986;5.842;2023-07-09T10:07:01;6.40;;;5.80;;
46765;SDS011;32527;51.986;5.842;2023-07-09T10:09:44;8.35;;;6.30;;
46765;SDS011;32527;51.986;5.842;2023-07-09T10:20:08;6.07;;;5.47;;
46765;SDS011;32527;51.986;5.842;2023-07-09T10:22:50;8.77;;;6.40;;
46765;SDS011;32527;51.986;5.842;2023-07-09T10:25:48;6.10;;;5.50;;
46765;SDS011;32527;51.986;5.842;2023-07-09T10:28:28;8.57;;;7.68;;
46765;SDS011;32527;51.986;5.842;2023-07-09T10:33:42;6.05;;;5.47;;
46765;SDS011;32527;51.986;5.842;2023-07-09T10:39:05;6.38;;;5.82;;
46765;SDS011;32527;51.986;5.842;2023-07-09T10:41:35;6.35;;;5.70;;
46765;SDS011;32527;51.986;5.842;2023-07-09T10:46:46;7.25;;;5.40;;
46765;SDS011;32527;51.986;5.842;2023-07-09T10:49:16;6.90;;;5.93;;
46765;SDS011;32527;51.986;5.842;2023-07-09T10:51:50;7.38;;;5.28;;
46765;SDS011;32527;51.986;5.842;2023-07-09T10:56:46;6.63;;;5.53;;
46765;SDS011;32527;51.986;5.842;2023-07-09T10:59:32;6.47;;;5.53;;
46765;SDS011;32527;51.986;5.842;2023-07-09T11:02:16;5.78;;;4.93;;
46765;SDS011;32527;51.986;5.842;2023-07-09T11:04:51;6.22;;;5.63;;
46765;SDS011;32527;51.986;5.842;2023-07-09T11:07:54;6.33;;;5.73;;
46765;SDS011;32527;51.986;5.842;2023-07-09T11:10:41;6.07;;;5.38;;
46765;SDS011;32527;51.986;5.842;2023-07-09T11:13:21;6.57;;;5.53;;
46765;SDS011;32527;51.986;5.842;2023-07-09T11:15:56;6.43;;;5.78;;
46765;SDS011;32527;51.986;5.842;2023-07-09T11:18:24;7.25;;;5.25;;
46765;SDS011;32527;51.986;5.842;2023-07-09T11:20:58;5.93;;;5.20;;
46765;SDS011;32527;51.986;5.842;2023-07-09T11:23:43;5.65;;;5.15;;
46765;SDS011;32527;51.986;5.842;2023-07-09T11:26:21;5.28;;;4.78;;
46765;SDS011;32527;51.986;5.842;2023-07-09T11:31:38;5.93;;;5.43;;
46765;SDS011;32527;51.986;5.842;2023-07-09T11:34:10;5.70;;;5.10;;
46765;SDS011;32527;51.986;5.842;2023-07-09T11:42:04;5.60;;;5.10;;
46765;SDS011;32527;51.986;5.842;2023-07-09T11:45:12;6.03;;;5.13;;
46765;SDS011;32527;51.986;5.842;2023-07-09T11:47:42;5.97;;;5.38;;
46765;SDS011;32527;51.986;5.842;2023-07-09T11:50:31;7.95;;;5.50;;
46765;SDS011;32527;51.986;5.842;2023-07-09T11:55:44;6.15;;;5.22;;
46765;SDS011;32527;51.986;5.842;2023-07-09T11:58:13;6.70;;;6.05;;
46765;SDS011;32527;51.986;5.842;2023-07-09T12:00:40;6.50;;;5.25;;
46765;SDS011;32527;51.986;5.842;2023-07-09T12:03:11;6.32;;;5.43;;
46765;SDS011;32527;51.986;5.842;2023-07-09T12:05:42;5.20;;;4.43;;
46765;SDS011;32527;51.986;5.842;2023-07-09T12:08:15;6.07;;;5.15;;
46765;SDS011;32527;51.986;5.842;2023-07-09T12:10:42;6.45;;;5.32;;
46765;SDS011;32527;51.986;5.842;2023-07-09T12:13:09;6.50;;;5.68;;
46765;SDS011;32527;51.986;5.842;2023-07-09T12:15:41;5.93;;;5.33;;
46765;SDS011;32527;51.986;5.842;2023-07-09T12:18:10;7.03;;;5.93;;
46765;SDS011;32527;51.986;5.842;2023-07-09T12:20:38;5.80;;;5.03;;
46765;SDS011;32527;51.986;5.842;2023-07-09T12:23:24;5.78;;;5.05;;
46765;SDS011;32527;51.986;5.842;2023-07-09T12:25:53;6.05;;;4.82;;
46765;SDS011;32527;51.986;5.842;2023-07-09T12:28:19;5.50;;;5.00;;
46765;SDS011;32527;51.986;5.842;2023-07-09T12:30:47;6.32;;;5.32;;
46765;SDS011;32527;51.986;5.842;2023-07-09T12:33:15;8.25;;;5.57;;
46765;SDS011;32527;51.986;5.842;2023-07-09T12:35:43;6.03;;;5.47;;
46765;SDS011;32527;51.986;5.842;2023-07-09T12:38:15;8.52;;;5.15;;
46765;SDS011;32527;51.986;5.842;2023-07-09T12:40:48;7.13;;;5.30;;
46765;SDS011;32527;51.986;5.842;2023-07-09T12:43:17;7.45;;;4.95;;
46765;SDS011;32527;51.986;5.842;2023-07-09T12:45:57;4.88;;;4.30;;
46765;SDS011;32527;51.986;5.842;2023-07-09T12:48:25;5.13;;;4.57;;
46765;SDS011;32527;51.986;5.842;2023-07-09T12:50:55;5.55;;;4.68;;
46765;SDS011;32527;51.986;5.842;2023-07-09T12:53:23;8.60;;;5.07;;
46765;SDS011;32527;51.986;5.842;2023-07-09T12:55:57;4.85;;;4.22;;
46765;SDS011;32527;51.986;5.842;2023-07-09T12:58:29;5.90;;;4.72;;
46765;SDS011;32527;51.986;5.842;2023-07-09T13:00:57;8.10;;;5.10;;
46765;SDS011;32527;51.986;5.842;2023-07-09T13:03:26;7.30;;;4.35;;
46765;SDS011;32527;51.986;5.842;2023-07-09T13:06:04;7.03;;;5.22;;
46765;SDS011;32527;51.986;5.842;2023-07-09T13:08:32;5.53;;;4.40;;
46765;SDS011;32527;51.986;5.842;2023-07-09T13:11:14;8.10;;;5.22;;
46765;SDS011;32527;51.986;5.842;2023-07-09T13:14:00;6.53;;;4.55;;
46765;SDS011;32527;51.986;5.842;2023-07-09T13:18:54;5.80;;;4.03;;
46765;SDS011;32527;51.986;5.842;2023-07-09T13:21:21;5.63;;;4.60;;
46765;SDS011;32527;51.986;5.842;2023-07-09T13:23:47;5.97;;;4.97;;
46765;SDS011;32527;51.986;5.842;2023-07-09T13:26:14;7.28;;;4.63;;
46765;SDS011;32527;51.986;5.842;2023-07-09T13:28:41;5.63;;;4.68;;
46765;SDS011;32527;51.986;5.842;2023-07-09T13:33:33;6.15;;;5.55;;
46765;SDS011;32527;51.986;5.842;2023-07-09T13:36:02;6.68;;;4.82;;
46765;SDS011;32527;51.986;5.842;2023-07-09T13:38:28;7.03;;;5.32;;
46765;SDS011;32527;51.986;5.842;2023-07-09T13:40:57;5.95;;;4.88;;
46765;SDS011;32527;51.986;5.842;2023-07-09T13:43:30;6.43;;;5.50;;
46765;SDS011;32527;51.986;5.842;2023-07-09T13:45:58;5.65;;;4.72;;
46765;SDS011;32527;51.986;5.842;2023-07-09T13:48:25;5.70;;;5.07;;
46765;SDS011;32527;51.986;5.842;2023-07-09T13:50:52;4.90;;;4.40;;
46765;SDS011;32527;51.986;5.842;2023-07-09T13:53:20;6.97;;;5.53;;
46765;SDS011;32527;51.986;5.842;2023-07-09T13:55:48;7.07;;;5.13;;
46765;SDS011;32527;51.986;5.842;2023-07-09T13:58:16;5.70;;;4.93;;
46765;SDS011;32527;51.986;5.842;2023-07-09T14:00:43;6.93;;;5.35;;
46765;SDS011;32527;51.986;5.842;2023-07-09T14:03:24;9.65;;;5.57;;
46765;SDS011;32527;51.986;5.842;2023-07-09T14:05:51;8.02;;;5.80;;
46765;SDS011;32527;51.986;5.842;2023-07-09T14:08:17;6.63;;;5.82;;
46765;SDS011;32527;51.986;5.842;2023-07-09T14:10:45;7.50;;;5.30;;
46765;SDS011;32527;51.986;5.842;2023-07-09T14:13:15;7.32;;;5.40;;
46765;SDS011;32527;51.986;5.842;2023-07-09T14:15:42;7.35;;;5.60;;
46765;SDS011;32527;51.986;5.842;2023-07-09T14:18:12;5.40;;;4.80;;
46765;SDS011;32527;51.986;5.842;2023-07-09T14:20:39;7.88;;;5.75;;
46765;SDS011;32527;51.986;5.842;2023-07-09T14:23:08;6.82;;;5.47;;
46765;SDS011;32527;51.986;5.842;2023-07-09T14:25:37;5.88;;;4.97;;
46765;SDS011;32527;51.986;5.842;2023-07-09T14:28:13;5.80;;;5.10;;
46765;SDS011;32527;51.986;5.842;2023-07-09T14:30:41;6.07;;;4.80;;
46765;SDS011;32527;51.986;5.842;2023-07-09T14:33:11;5.95;;;5.10;;
46765;SDS011;32527;51.986;5.842;2023-07-09T14:35:39;6.05;;;5.10;;
46765;SDS011;32527;51.986;5.842;2023-07-09T14:38:06;6.82;;;5.57;;
46765;SDS011;32527;51.986;5.842;2023-07-09T14:40:45;6.63;;;5.00;;
46765;SDS011;32527;51.986;5.842;2023-07-09T14:43:12;8.15;;;5.72;;
46765;SDS011;32527;51.986;5.842;2023-07-09T14:45:39;12.98;;;5.30;;
46765;SDS011;32527;51.986;5.842;2023-07-09T14:48:08;6.05;;;5.20;;
46765;SDS011;32527;51.986;5.842;2023-07-09T14:50:38;7.30;;;5.72;;
46765;SDS011;32527;51.986;5.842;2023-07-09T14:53:09;6.15;;;4.72;;
46765;SDS011;32527;51.986;5.842;2023-07-09T14:55:38;6.18;;;4.95;;
46765;SDS011;32527;51.986;5.842;2023-07-09T14:58:08;9.18;;;3.83;;
46765;SDS011;32527;51.986;5.842;2023-07-09T15:00:41;6.50;;;3.92;;
46765;SDS011;32527;51.986;5.842;2023-07-09T15:03:09;6.57;;;4.00;;
46765;SDS011;32527;51.986;5.842;2023-07-09T15:05:37;5.03;;;3.67;;
46765;SDS011;32527;51.986;5.842;2023-07-09T15:08:12;6.30;;;4.93;;
46765;SDS011;32527;51.986;5.842;2023-07-09T15:10:39;5.93;;;3.92;;
46765;SDS011;32527;51.986;5.842;2023-07-09T15:13:05;7.68;;;4.63;;
46765;SDS011;32527;51.986;5.842;2023-07-09T15:15:43;4.32;;;3.60;;
46765;SDS011;32527;51.986;5.842;2023-07-09T15:18:11;4.22;;;3.40;;
46765;SDS011;32527;51.986;5.842;2023-07-09T15:20:38;6.05;;;4.03;;
46765;SDS011;32527;51.986;5.842;2023-07-09T15:23:04;8.20;;;3.47;;
46765;SDS011;32527;51.986;5.842;2023-07-09T15:25:31;4.38;;;3.65;;
46765;SDS011;32527;51.986;5.842;2023-07-09T15:27:57;5.32;;;3.70;;
46765;SDS011;32527;51.986;5.842;2023-07-09T15:30:24;5.43;;;3.55;;
46765;SDS011;32527;51.986;5.842;2023-07-09T15:32:54;4.07;;;2.95;;
46765;SDS011;32527;51.986;5.842;2023-07-09T15:35:21;3.33;;;3.00;;
46765;SDS011;32527;51.986;5.842;2023-07-09T15:37:48;6.18;;;3.83;;
46765;SDS011;32527;51.986;5.842;2023-07-09T15:40:19;4.20;;;3.47;;
46765;SDS011;32527;51.986;5.842;2023-07-09T15:42:47;4.38;;;3.28;;
46765;SDS011;32527;51.986;5.842;2023-07-09T15:45:14;4.13;;;3.20;;
46765;SDS011;32527;51.986;5.842;2023-07-09T15:47:41;7.25;;;3.45;;
46765;SDS011;32527;51.986;5.842;2023-07-09T15:50:28;4.85;;;3.72;;
46765;SDS011;32527;51.986;5.842;2023-07-09T15:52:53;3.47;;;3.00;;